Time;durP1;ratioP1;P1;durP2;ratioP2;P2;SDS_P1;SDS_P2;PMS_P1;PMS_P2;Temp;Humidity;BMP_temperature;BMP_pressure;BME280_temperature;BME280_humidity;BME280_pressure;Samples;Min_cycle;Max_cycle;Signal;HPM_P1;HPM_P2
2023/07/05 00:01:32;;;;;;;14.60;5.47;;;;;;;19.86;57.28;99499.34;5087674;28;20427;-43
2023/07/05 00:03:57;;;;;;;9.20;5.13;;;;;;;19.95;57.65;99519.75;5087435;28;20453;-42
2023/07/05 00:06:23;;;;;;;10.60;5.80;;;;;;;19.92;58.28;99519.16;5088058;28;20039;-46
2023/07/05 00:08:50;;;;;;;8.00;5.15;;;;;;;19.88;58.41;99523.81;5085928;28;20550;-44
2023/07/05 00:11:17;;;;;;;11.95;5.13;;;;;;;19.85;58.57;99526.66;5084556;28;20519;-43
2023/07/05 00:13:43;;;;;;;10.65;5.75;;;;;;;19.84;58.45;99530.25;5084630;28;20071;-43
2023/07/05 00:16:10;;;;;;;14.55;5.95;;;;;;;19.83;58.62;99529.44;5083602;28;20036;-42
2023/07/05 00:18:37;;;;;;;8.48;6.00;;;;;;;19.82;58.48;99533.03;5067383;28;20047;-43
2023/07/05 00:21:05;;;;;;;16.48;5.72;;;;;;;19.83;58.81;99531.25;5083833;28;20085;-43
2023/07/05 00:23:33;;;;;;;12.30;5.78;;;;;;;19.84;58.44;99528.47;5065016;28;20068;-43
2023/07/05 00:25:59;;;;;;;12.10;5.70;;;;;;;19.84;58.71;99530.25;5047934;28;20044;-42
2023/07/05 00:28:25;;;;;;;12.35;5.82;;;;;;;19.83;58.74;99532.09;5066609;28;20044;-44
2023/07/05 00:30:51;;;;;;;10.70;6.10;;;;;;;19.84;58.81;99531.09;5026898;28;20044;-43
2023/07/05 00:33:19;;;;;;;8.80;5.72;;;;;;;19.81;59.13;99535.78;5030368;28;20492;-42
2023/07/05 00:35:49;;;;;;;13.73;5.97;;;;;;;19.57;59.66;99520.00;4998309;28;20040;-43
2023/07/05 00:38:16;;;;;;;11.13;6.10;;;;;;;19.72;59.62;99537.31;5008151;28;20048;-42
2023/07/05 00:40:42;;;;;;;15.55;6.28;;;;;;;19.70;59.79;99533.94;5026078;28;20083;-43
2023/07/05 00:43:09;;;;;;;10.20;6.07;;;;;;;19.54;60.07;99507.00;5034036;28;20045;-45
2023/07/05 00:45:58;;;;;;;11.00;5.43;;;;;;;19.65;60.35;99535.22;5071994;28;20101;-44
2023/07/05 00:48:31;;;;;;;11.18;5.60;;;;;;;19.62;60.48;99538.09;5037422;28;20512;-42
2023/07/05 00:51:00;;;;;;;11.27;6.22;;;;;;;19.43;60.65;99514.84;5053515;28;20061;-42
2023/07/05 00:53:27;;;;;;;12.18;6.15;;;;;;;19.55;60.59;99540.34;5035721;28;20075;-44
2023/07/05 00:55:58;;;;;;;13.63;5.68;;;;;;;19.53;60.48;99542.25;5067364;28;20119;-43
2023/07/05 00:58:24;;;;;;;10.80;5.88;;;;;;;19.48;60.60;99536.47;5052971;28;20040;-42
2023/07/05 01:00:52;;;;;;;7.82;5.28;;;;;;;19.28;60.86;99516.81;5034522;28;20089;-43
2023/07/05 01:03:21;;;;;;;17.00;5.93;;;;;;;19.43;60.83;99541.19;5052744;28;20797;-43
2023/07/05 01:05:50;;;;;;;11.73;5.65;;;;;;;19.42;60.94;99544.78;5070309;28;20040;-43
2023/07/05 01:08:16;;;;;;;12.95;6.40;;;;;;;19.25;61.71;99524.94;5053202;28;20033;-44
2023/07/05 01:10:48;;;;;;;10.30;5.95;;;;;;;19.31;62.37;99542.94;5041638;28;20090;-43
2023/07/05 01:13:24;;;;;;;9.18;5.97;;;;;;;19.28;63.06;99544.94;5003049;28;20099;-43
2023/07/05 01:16:22;;;;;;;12.70;5.85;;;;;;;19.22;63.66;99542.75;5056164;28;20071;-43
2023/07/05 01:19:32;;;;;;;13.43;6.40;;;;;;;19.21;63.34;99544.53;5053562;28;20626;-47
2023/07/05 01:22:06;;;;;;;9.77;5.63;;;;;;;19.00;63.06;99509.19;5065423;28;20043;-42
2023/07/05 01:25:05;;;;;;;14.30;6.13;;;;;;;19.21;63.21;99541.09;5017055;28;20608;-46
2023/07/05 01:28:10;;;;;;;8.65;5.53;;;;;;;19.19;63.55;99540.34;5051260;28;20132;-43
2023/07/05 01:31:03;;;;;;;11.38;5.50;;;;;;;19.20;63.48;99545.53;5017566;28;20152;-43
2023/07/05 01:33:41;;;;;;;12.63;5.85;;;;;;;19.22;63.45;99548.03;5035947;28;20126;-42
2023/07/05 01:36:08;;;;;;;11.57;6.27;;;;;;;19.23;63.50;99549.72;5020448;28;20048;-42
2023/07/05 01:38:33;;;;;;;13.88;6.70;;;;;;;19.22;63.86;99550.66;5052154;28;20045;-43
2023/07/05 01:41:05;;;;;;;14.00;6.43;;;;;;;19.22;64.00;99554.16;5052917;28;20532;-45
2023/07/05 01:43:32;;;;;;;11.48;5.93;;;;;;;19.24;64.22;99548.78;5031533;28;20127;-43
2023/07/05 01:46:04;;;;;;;14.88;6.55;;;;;;;19.27;63.93;99557.28;5032595;28;20665;-44
2023/07/05 01:48:48;;;;;;;10.75;6.75;;;;;;;19.30;63.65;99546.53;5032640;28;20036;-45
2023/07/05 01:51:31;;;;;;;12.88;6.43;;;;;;;19.19;64.06;99529.81;5036658;28;20041;-43
2023/07/05 01:54:00;;;;;;;18.98;7.68;;;;;;;19.36;63.88;99551.38;5051054;28;20055;-44
2023/07/05 01:56:43;;;;;;;10.35;6.10;;;;;;;19.35;63.60;99546.22;5069737;28;20044;-43
2023/07/05 01:59:09;;;;;;;13.30;7.10;;;;;;;19.38;63.58;99556.50;5018186;28;20562;-44
2023/07/05 02:01:36;;;;;;;11.98;6.20;;;;;;;19.38;63.72;99543.34;5035349;28;20064;-43
2023/07/05 02:04:03;;;;;;;14.15;6.57;;;;;;;19.37;64.05;99541.66;5043561;28;20127;-42
2023/07/05 02:06:30;;;;;;;12.18;7.00;;;;;;;19.39;64.34;99540.59;5035985;28;20055;-43
2023/07/05 02:08:56;;;;;;;18.85;7.10;;;;;;;19.44;64.38;99542.91;5040323;28;20033;-43
2023/07/05 02:11:23;;;;;;;14.07;7.10;;;;;;;19.32;64.18;99510.34;5043177;28;20406;-42
2023/07/05 02:13:49;;;;;;;12.43;6.75;;;;;;;19.52;64.16;99537.94;5062995;28;20044;-41
2023/07/05 02:16:15;;;;;;;16.98;7.30;;;;;;;19.39;64.56;99526.56;5034934;28;20067;-42
2023/07/05 02:18:41;;;;;;;16.58;8.65;;;;;;;19.56;64.33;99541.19;5070032;28;20042;-43
2023/07/05 02:21:09;;;;;;;14.02;8.05;;;;;;;19.61;64.20;99542.53;5050365;28;20044;-42
2023/07/05 02:23:35;;;;;;;14.38;8.00;;;;;;;19.69;64.09;99544.59;5069279;28;20056;-44
2023/07/05 02:26:04;;;;;;;12.75;7.28;;;;;;;19.77;63.64;99540.44;5019112;28;20135;-42
2023/07/05 02:28:31;;;;;;;15.30;7.75;;;;;;;19.84;63.46;99557.50;5051173;28;20075;-43
2023/07/05 02:30:57;;;;;;;13.90;7.80;;;;;;;19.94;63.24;99549.72;5050859;28;20042;-44
2023/07/05 02:33:23;;;;;;;16.92;7.95;;;;;;;20.04;62.93;99557.81;5069253;28;20102;-45
2023/07/05 02:35:49;;;;;;;18.08;8.90;;;;;;;20.18;62.16;99561.09;5034275;28;20482;-42
2023/07/05 02:38:14;;;;;;;21.33;8.65;;;;;;;20.30;61.68;99546.13;5002053;28;20040;-44
2023/07/05 02:40:46;;;;;;;14.77;8.00;;;;;;;20.29;61.47;99529.44;5046170;28;20051;-43
2023/07/05 02:43:12;;;;;;;16.10;8.23;;;;;;;20.57;60.95;99549.28;5036099;28;20040;-42
2023/07/05 02:45:38;;;;;;;14.07;8.57;;;;;;;20.66;60.33;99553.03;5041828;28;20056;-44
2023/07/05 02:48:04;;;;;;;16.35;8.23;;;;;;;20.73;60.01;99548.94;5068587;28;20581;-42
2023/07/05 02:50:30;;;;;;;16.13;8.73;;;;;;;20.77;59.69;99553.03;5035151;28;20044;-43
2023/07/05 02:52:56;;;;;;;14.43;8.20;;;;;;;20.82;59.45;99553.53;5068263;28;20035;-43
2023/07/05 02:55:22;;;;;;;14.93;8.38;;;;;;;20.86;59.11;99554.09;5069784;28;20045;-43
2023/07/05 02:57:48;;;;;;;16.95;8.55;;;;;;;20.87;58.87;99546.06;5068804;28;20052;-43
2023/07/05 03:00:15;;;;;;;15.27;7.93;;;;;;;20.94;58.60;99549.03;5041281;28;20507;-43
2023/07/05 03:02:41;;;;;;;15.40;7.93;;;;;;;21.01;58.54;99548.44;5057946;28;20050;-43
2023/07/05 03:05:12;;;;;;;13.00;7.85;;;;;;;20.93;58.69;99527.09;5068451;28;20040;-43
2023/07/05 03:07:38;;;;;;;16.17;8.48;;;;;;;21.16;58.65;99543.78;5016221;28;20060;-45
2023/07/05 03:10:05;;;;;;;17.15;8.35;;;;;;;21.09;58.28;99532.81;5032870;28;20102;-43
2023/07/05 03:12:32;;;;;;;14.67;7.23;;;;;;;21.28;58.30;99540.16;5034611;28;20064;-44
2023/07/05 03:14:58;;;;;;;13.88;7.53;;;;;;;21.35;57.78;99540.50;5039152;28;20707;-46
2023/07/05 03:17:24;;;;;;;15.07;8.30;;;;;;;21.40;57.36;99552.41;5069124;28;20047;-42
2023/07/05 03:19:52;;;;;;;13.90;8.00;;;;;;;21.50;57.52;99553.31;5027900;28;20048;-44
2023/07/05 03:22:19;;;;;;;15.32;7.75;;;;;;;21.56;57.55;99554.63;5059987;28;20080;-45
2023/07/05 03:24:45;;;;;;;14.35;8.02;;;;;;;21.55;58.06;99563.53;5043942;28;20075;-42
2023/07/05 03:27:11;;;;;;;12.77;7.32;;;;;;;21.56;58.03;99562.56;5033582;28;20036;-43
2023/07/05 03:29:37;;;;;;;14.35;7.32;;;;;;;21.56;57.61;99570.50;5050240;28;20036;-42
2023/07/05 03:32:04;;;;;;;16.08;7.20;;;;;;;21.57;56.93;99574.81;5050378;28;20068;-42
2023/07/05 03:34:31;;;;;;;14.20;7.00;;;;;;;21.60;56.33;99566.63;5051104;28;20044;-42
2023/07/05 03:36:57;;;;;;;14.30;7.57;;;;;;;21.70;56.09;99569.38;5050514;28;20294;-46
2023/07/05 03:39:23;;;;;;;10.88;7.00;;;;;;;21.80;55.74;99570.28;5026808;28;20059;-42
2023/07/05 03:41:49;;;;;;;16.02;7.43;;;;;;;21.92;55.58;99564.84;5017190;28;20081;-48
2023/07/05 03:44:14;;;;;;;10.88;7.07;;;;;;;22.05;55.28;99563.81;5049991;28;20393;-41
2023/07/05 03:46:42;;;;;;;18.58;7.75;;;;;;;22.19;54.73;99564.34;5049820;28;20666;-46
2023/07/05 03:49:08;;;;;;;14.18;7.35;;;;;;;22.15;54.46;99540.91;5068015;28;20036;-42
2023/07/05 03:51:34;;;;;;;17.02;7.57;;;;;;;22.13;54.34;99527.81;5050325;28;20104;-43
2023/07/05 03:54:00;;;;;;;11.80;6.65;;;;;;;22.23;54.07;99543.75;5041139;28;20037;-43
2023/07/05 03:56:27;;;;;;;12.13;6.47;;;;;;;22.17;53.30;99533.69;5059447;28;20037;-45
2023/07/05 03:58:53;;;;;;;14.88;6.70;;;;;;;22.24;53.29;99553.38;5042829;28;20040;-44
2023/07/05 04:01:22;;;;;;;15.40;7.25;;;;;;;22.29;53.22;99559.97;5068465;28;20101;-45
2023/07/05 04:03:53;;;;;;;;;;;;;;;22.27;53.24;99556.59;5066263;28;20051;-44
2023/07/05 04:06:19;;;;;;;12.68;6.88;;;;;;;22.18;53.54;99549.44;5067572;28;19916;-44
2023/07/05 04:08:45;;;;;;;12.35;6.55;;;;;;;22.21;53.31;99553.63;5031666;28;20029;-42
2023/07/05 04:11:11;;;;;;;14.02;6.47;;;;;;;22.29;53.21;99544.09;5067650;28;20059;-42
2023/07/05 04:13:37;;;;;;;12.73;6.22;;;;;;;22.35;53.22;99548.84;5008380;28;20428;-42
2023/07/05 04:16:15;;;;;;;12.98;6.28;;;;;;;22.50;52.74;99540.56;5067274;28;20040;-41
2023/07/05 04:18:42;;;;;;;15.35;6.72;;;;;;;22.69;52.38;99553.91;5048739;28;20045;-43
2023/07/05 04:21:08;;;;;;;8.88;5.47;;;;;;;22.87;52.10;99540.91;5049151;28;20041;-42
2023/07/05 04:23:35;;;;;;;11.77;6.32;;;;;;;23.00;51.60;99560.06;5052163;28;20079;-43
2023/07/05 04:26:03;;;;;;;11.52;6.05;;;;;;;23.14;51.62;99555.22;5086926;28;20043;-44
2023/07/05 04:28:30;;;;;;;14.98;6.53;;;;;;;23.33;50.85;99558.91;5052561;28;20047;-43
2023/07/05 04:30:56;;;;;;;9.30;5.80;;;;;;;23.32;50.38;99550.09;5087257;28;20039;-43
2023/07/05 04:33:22;;;;;;;14.23;8.00;;;;;;;23.43;49.99;99536.72;5058962;28;20048;-46
2023/07/05 04:35:49;;;;;;;10.45;6.10;;;;;;;23.66;49.49;99563.06;5066765;28;20040;-43
2023/07/05 04:38:15;;;;;;;10.07;5.82;;;;;;;23.80;49.20;99554.66;5078870;28;20439;-44
2023/07/05 04:40:41;;;;;;;13.45;5.30;;;;;;;23.97;49.09;99560.09;5085707;28;20044;-45
2023/07/05 04:43:07;;;;;;;12.88;5.38;;;;;;;23.98;48.28;99553.81;5085885;28;20542;-43
2023/07/05 04:45:33;;;;;;;11.98;4.88;;;;;;;23.86;47.70;99554.09;5088151;28;20089;-43
2023/07/05 04:47:59;;;;;;;10.15;5.00;;;;;;;23.74;47.51;99557.88;5088113;28;20040;-47
2023/07/05 04:50:25;;;;;;;9.25;5.63;;;;;;;23.75;47.84;99554.25;5086527;28;20039;-43
2023/07/05 04:52:51;;;;;;;12.77;5.32;;;;;;;23.77;47.62;99536.34;5074887;28;20553;-45
2023/07/05 04:55:17;;;;;;;12.57;5.47;;;;;;;24.07;47.65;99557.47;5083208;28;20047;-46
2023/07/05 04:57:43;;;;;;;13.45;5.22;;;;;;;24.10;47.47;99557.16;5084571;28;20056;-44
2023/07/05 05:00:10;;;;;;;7.68;4.80;;;;;;;24.08;47.18;99557.28;5085341;28;20859;-42
2023/07/05 05:02:37;;;;;;;10.18;5.07;;;;;;;23.97;47.26;99561.94;5086832;28;20040;-42
2023/07/05 05:05:05;;;;;;;16.58;4.88;;;;;;;23.90;46.99;99559.00;5049581;28;20125;-44
2023/07/05 05:07:31;;;;;;;7.15;4.45;;;;;;;23.84;46.79;99556.06;5087019;28;20500;-42
2023/07/05 05:09:59;;;;;;;10.98;5.43;;;;;;;23.88;47.02;99563.59;5069430;28;20036;-44
2023/07/05 05:12:25;;;;;;;11.70;5.13;;;;;;;23.95;46.90;99563.88;5084183;28;20123;-42
2023/07/05 05:14:50;;;;;;;10.60;5.43;;;;;;;23.96;46.62;99562.91;5064428;28;20041;-43
2023/07/05 05:17:16;;;;;;;11.27;5.32;;;;;;;23.97;46.83;99564.59;5080703;28;20040;-43
2023/07/05 05:19:42;;;;;;;7.93;5.28;;;;;;;24.19;46.84;99558.16;5061350;28;20080;-44
2023/07/05 05:22:10;;;;;;;10.23;5.13;;;;;;;24.41;46.75;99552.53;5051527;28;20048;-41
2023/07/05 05:24:36;;;;;;;15.85;5.65;;;;;;;24.63;46.47;99557.50;5038101;28;20036;-41
2023/07/05 05:27:03;;;;;;;11.63;5.50;;;;;;;24.58;46.49;99533.16;5071148;28;20040;-43
2023/07/05 05:29:30;;;;;;;9.00;5.60;;;;;;;24.66;46.55;99551.03;5051610;28;20036;-44
2023/07/05 05:31:56;;;;;;;10.00;5.60;;;;;;;24.56;46.50;99558.22;5005238;28;20474;-45
2023/07/05 05:34:26;;;;;;;9.45;5.72;;;;;;;24.47;46.09;99543.97;5035893;28;20078;-43
2023/07/05 05:36:52;;;;;;;13.30;5.90;;;;;;;24.57;46.30;99560.72;5052487;28;20048;-44
2023/07/05 05:39:19;;;;;;;8.05;4.80;;;;;;;24.67;46.21;99553.56;5048249;28;20090;-42
2023/07/05 05:41:45;;;;;;;13.40;5.63;;;;;;;24.84;46.19;99558.13;5051913;28;20047;-41
2023/07/05 05:44:12;;;;;;;10.85;5.03;;;;;;;24.83;45.24;99561.75;5069959;28;20040;-42
2023/07/05 05:46:38;;;;;;;12.95;5.93;;;;;;;24.82;45.16;99556.56;5036499;28;20098;-42
2023/07/05 05:49:04;;;;;;;12.50;5.90;;;;;;;25.02;44.55;99557.38;5070769;28;20032;-44
2023/07/05 05:51:29;;;;;;;12.27;6.88;;;;;;;25.33;44.76;99564.88;5070524;28;20048;-44
2023/07/05 05:53:55;;;;;;;10.68;5.25;;;;;;;25.40;44.20;99549.16;5027829;28;20040;-41
2023/07/05 05:56:21;;;;;;;14.85;5.13;;;;;;;25.63;43.67;99565.59;5067681;28;20040;-41
2023/07/05 05:58:47;;;;;;;9.75;4.38;;;;;;;25.73;43.06;99561.88;5070150;28;20033;-43
2023/07/05 06:01:13;;;;;;;10.45;4.72;;;;;;;25.69;42.99;99573.81;5070135;28;20105;-42
2023/07/05 06:03:39;;;;;;;14.88;6.35;;;;;;;25.94;43.14;99572.22;5065448;28;20466;-43
2023/07/05 06:06:05;;;;;;;9.18;5.03;;;;;;;26.03;42.43;99565.94;5049711;28;20043;-42
2023/07/05 06:08:32;;;;;;;10.57;5.25;;;;;;;26.08;41.93;99528.19;5042980;28;20097;-41
2023/07/05 06:11:00;;;;;;;9.63;5.10;;;;;;;26.37;41.17;99566.09;5038453;28;20036;-43
2023/07/05 06:13:27;;;;;;;11.85;4.90;;;;;;;26.53;41.33;99560.03;5046459;28;20044;-43
2023/07/05 06:15:55;;;;;;;13.55;5.38;;;;;;;26.84;41.26;99561.22;5047520;28;20078;-44
2023/07/05 06:18:21;;;;;;;9.15;5.13;;;;;;;26.79;40.06;99571.53;5048927;28;20040;-42
2023/07/05 06:20:47;;;;;;;9.38;4.97;;;;;;;26.67;40.13;99571.94;5066577;28;20036;-43
2023/07/05 06:23:13;;;;;;;14.00;5.57;;;;;;;26.35;39.88;99573.41;5059214;28;20056;-41
2023/07/05 06:25:38;;;;;;;10.15;4.93;;;;;;;26.07;40.49;99546.00;5045309;28;20066;-45
2023/07/05 06:28:04;;;;;;;10.98;5.00;;;;;;;26.25;40.35;99570.00;5032419;28;20036;-43
2023/07/05 06:30:30;;;;;;;7.97;4.15;;;;;;;26.23;39.84;99550.63;5063519;28;20067;-45
2023/07/05 06:32:56;;;;;;;10.30;4.70;;;;;;;26.19;40.06;99562.56;5068804;28;20036;-44
2023/07/05 06:35:22;;;;;;;12.70;4.85;;;;;;;25.93;39.70;99522.56;5068017;28;20113;-44
2023/07/05 06:37:48;;;;;;;10.30;5.22;;;;;;;26.30;39.50;99569.53;5051077;28;20510;-45
2023/07/05 06:40:14;;;;;;;10.48;5.35;;;;;;;26.42;39.39;99565.63;5035694;28;20829;-45
2023/07/05 06:42:40;;;;;;;10.63;5.07;;;;;;;26.82;39.01;99565.84;5041668;28;20068;-47
2023/07/05 06:45:11;;;;;;;10.45;5.60;;;;;;;27.45;38.26;99568.13;5041055;28;20079;-43
2023/07/05 06:47:38;;;;;;;13.60;5.30;;;;;;;27.83;37.41;99561.38;5042483;28;20453;-43
2023/07/05 06:50:06;;;;;;;9.90;4.80;;;;;;;28.60;36.37;99568.03;5059713;28;20098;-45
2023/07/05 06:52:31;;;;;;;8.90;4.87;;;;;;;29.05;35.34;99568.25;5067195;28;20036;-45
2023/07/05 06:54:58;;;;;;;11.70;5.25;;;;;;;29.60;34.77;99566.50;5042918;28;20420;-43
2023/07/05 06:57:23;;;;;;;11.38;5.07;;;;;;;30.25;33.92;99558.84;5045809;28;20043;-42
2023/07/05 06:59:49;;;;;;;9.10;5.30;;;;;;;30.59;33.54;99564.56;5049343;28;20118;-43
2023/07/05 07:02:15;;;;;;;8.57;5.15;;;;;;;30.67;32.74;99552.91;5059729;28;20037;-42
2023/07/05 07:04:41;;;;;;;13.35;5.72;;;;;;;30.76;32.50;99559.00;5034873;28;20045;-43
2023/07/05 07:07:07;;;;;;;8.43;5.15;;;;;;;30.58;33.00;99554.84;5050181;28;20086;-45
2023/07/05 07:09:33;;;;;;;8.15;5.22;;;;;;;29.91;33.62;99556.59;5068602;28;20098;-46
2023/07/05 07:11:59;;;;;;;8.57;5.38;;;;;;;29.39;34.55;99567.13;5049312;28;20044;-44
2023/07/05 07:14:25;;;;;;;11.80;5.38;;;;;;;29.09;34.96;99550.03;5062363;28;20079;-46
2023/07/05 07:16:51;;;;;;;11.90;5.80;;;;;;;29.06;35.03;99555.72;5061023;28;20512;-45
2023/07/05 07:19:17;;;;;;;7.95;4.95;;;;;;;28.99;35.49;99534.19;5055506;28;20047;-45
2023/07/05 07:21:44;;;;;;;8.27;5.68;;;;;;;29.31;35.13;99551.09;5050623;28;20036;-46
2023/07/05 07:24:10;;;;;;;8.68;5.65;;;;;;;29.42;35.31;99564.09;5069625;28;20060;-45
2023/07/05 07:26:37;;;;;;;9.00;4.65;;;;;;;29.25;35.30;99554.47;5079779;28;20071;-46
2023/07/05 07:29:04;;;;;;;;;;;;;;;28.77;35.39;99547.47;5077905;28;20052;-46
2023/07/05 07:31:31;;;;;;;6.80;5.10;;;;;;;28.25;36.27;99552.41;5077095;28;19915;-43
2023/07/05 07:34:00;;;;;;;10.88;5.90;;;;;;;28.05;36.76;99550.03;5079821;28;20350;-46
2023/07/05 07:36:31;;;;;;;8.75;5.05;;;;;;;27.77;37.35;99548.69;5055611;28;20039;-50
2023/07/05 07:38:58;;;;;;;8.40;5.30;;;;;;;27.55;37.78;99552.81;5080633;28;20032;-45
2023/07/05 07:41:27;;;;;;;8.98;5.13;;;;;;;27.42;37.84;99550.56;5052900;28;21511;-47
2023/07/05 07:43:55;;;;;;;8.85;5.45;;;;;;;27.30;37.83;99554.56;5062302;28;20781;-45
2023/07/05 07:46:23;;;;;;;11.43;5.25;;;;;;;27.35;37.76;99554.09;5077030;28;20551;-47
2023/07/05 07:48:51;;;;;;;8.77;5.07;;;;;;;27.52;37.89;99558.50;5045826;28;20459;-49
2023/07/05 07:51:18;;;;;;;15.57;5.28;;;;;;;27.60;37.61;99560.34;5072030;28;20036;-51
2023/07/05 07:53:44;;;;;;;11.13;5.40;;;;;;;27.71;37.73;99562.69;5071762;28;20035;-47
2023/07/05 07:56:15;;;;;;;9.27;5.35;;;;;;;27.77;37.66;99562.03;5065333;28;20072;-46
2023/07/05 07:58:41;;;;;;;9.05;5.50;;;;;;;27.83;37.64;99563.22;5073175;28;20131;-49
2023/07/05 08:01:17;;;;;;;8.30;5.03;;;;;;;27.41;38.18;99558.78;5074819;28;20062;-45
2023/07/05 08:03:43;;;;;;;10.15;5.95;;;;;;;27.32;38.46;99522.38;5055464;28;20093;-47
2023/07/05 08:06:10;;;;;;;8.02;5.60;;;;;;;27.47;38.49;99551.94;5056308;28;20850;-44
2023/07/05 08:08:37;;;;;;;8.75;5.55;;;;;;;27.51;38.85;99558.66;5078969;28;20039;-44
2023/07/05 08:11:03;;;;;;;12.75;5.55;;;;;;;27.45;39.29;99540.59;5078068;28;20040;-46
2023/07/05 08:13:30;;;;;;;12.40;6.13;;;;;;;27.79;39.01;99563.53;5084376;28;20050;-43
2023/07/05 08:16:00;;;;;;;10.27;5.45;;;;;;;27.84;39.46;99563.06;5073064;28;20047;-49
2023/07/05 08:18:27;;;;;;;10.32;5.38;;;;;;;27.81;39.62;99571.41;5062543;28;20036;-46
2023/07/05 08:20:53;;;;;;;12.90;5.50;;;;;;;27.59;39.85;99545.31;5040681;28;20040;-47
2023/07/05 08:23:20;;;;;;;13.45;6.50;;;;;;;27.72;40.09;99575.91;5058781;28;20064;-46
2023/07/05 08:25:54;;;;;;;9.95;6.20;;;;;;;27.72;40.08;99572.41;5066722;28;20136;-42
2023/07/05 08:28:25;;;;;;;9.00;5.85;;;;;;;28.04;39.66;99574.25;5061125;28;20564;-45
2023/07/05 08:30:56;;;;;;;10.15;5.90;;;;;;;28.97;38.91;99580.84;5059864;28;20071;-46
2023/07/05 08:33:23;;;;;;;10.55;5.80;;;;;;;29.79;37.63;99558.00;5078046;28;20117;-47
2023/07/05 08:35:50;;;;;;;12.52;6.55;;;;;;;29.72;37.83;99581.19;5085034;28;20042;-45
2023/07/05 08:38:18;;;;;;;10.07;6.20;;;;;;;29.06;39.06;99585.16;5085127;28;20048;-46
2023/07/05 08:40:49;;;;;;;15.98;6.97;;;;;;;28.62;40.33;99582.09;5086862;28;20111;-45
2023/07/05 08:43:30;;;;;;;19.08;7.20;;;;;;;28.43;40.70;99569.06;5078212;28;20040;-48
2023/07/05 08:46:02;;;;;;;10.50;6.25;;;;;;;28.18;41.35;99589.66;5068624;28;20043;-47
2023/07/05 08:48:30;;;;;;;10.75;6.30;;;;;;;28.67;41.14;99577.06;5079421;28;20051;-44
2023/07/05 08:50:56;;;;;;;15.77;6.93;;;;;;;30.26;38.86;99584.63;5065468;28;20114;-43
2023/07/05 08:53:23;;;;;;;13.38;6.45;;;;;;;31.52;36.68;99583.59;5078058;28;20052;-46
2023/07/05 08:55:53;;;;;;;11.00;6.85;;;;;;;31.26;37.07;99583.25;5085171;28;20131;-44
2023/07/05 08:58:27;;;;;;;9.48;6.63;;;;;;;30.46;37.92;99593.81;5055594;28;20064;-44
2023/07/05 09:01:00;;;;;;;9.95;6.10;;;;;;;29.66;39.26;99592.59;5045993;28;20522;-43
2023/07/05 09:03:31;;;;;;;8.80;6.25;;;;;;;28.85;40.29;99584.91;5055580;28;20039;-47
2023/07/05 09:06:22;;;;;;;14.95;7.22;;;;;;;28.53;41.31;99591.13;5082070;28;20056;-47
2023/07/05 09:08:58;;;;;;;14.63;7.60;;;;;;;28.26;42.10;99587.00;5063172;28;20063;-47
2023/07/05 09:11:25;;;;;;;14.57;6.47;;;;;;;28.19;42.13;99589.50;5081294;28;20125;-46
2023/07/05 09:14:01;;;;;;;10.68;6.78;;;;;;;27.88;42.42;99576.91;5075331;28;20035;-48
2023/07/05 09:16:42;;;;;;;12.57;6.80;;;;;;;27.72;43.14;99591.09;5052719;28;20530;-42
2023/07/05 09:19:24;;;;;;;11.88;7.22;;;;;;;27.29;44.26;99589.44;5088910;28;20125;-42
2023/07/05 09:22:01;;;;;;;12.05;6.97;;;;;;;27.11;44.64;99584.19;5079057;28;20419;-53
2023/07/05 09:24:26;;;;;;;14.82;7.30;;;;;;;27.08;44.75;99589.00;5057679;28;20466;-49
2023/07/05 09:27:13;;;;;;;15.18;7.20;;;;;;;27.11;45.08;99594.06;5078891;28;20130;-49
2023/07/05 09:29:43;;;;;;;14.25;7.78;;;;;;;27.28;44.71;99596.59;5080599;28;20047;-46
2023/07/05 09:32:12;;;;;;;11.07;6.97;;;;;;;27.49;44.44;99596.16;5071911;28;20036;-43
2023/07/05 09:34:50;;;;;;;13.30;7.45;;;;;;;28.01;43.25;99564.72;5084652;28;20075;-45
2023/07/05 09:37:36;;;;;;;11.40;7.20;;;;;;;28.99;42.08;99585.03;5079095;28;20111;-45
2023/07/05 09:40:10;;;;;;;11.68;7.13;;;;;;;29.80;40.51;99586.47;5098425;28;20548;-44
2023/07/05 09:43:02;;;;;;;10.55;6.15;;;;;;;30.97;38.81;99580.59;5063779;28;20071;-46
2023/07/05 09:45:28;;;;;;;12.50;6.53;;;;;;;31.08;37.58;99577.47;5090384;28;20048;-45
2023/07/05 09:47:59;;;;;;;11.18;6.97;;;;;;;30.68;37.56;99578.72;5053926;28;20038;-40
2023/07/05 09:50:25;;;;;;;12.10;6.53;;;;;;;30.08;38.21;99581.44;5071247;28;20046;-45
2023/07/05 09:53:00;;;;;;;12.57;7.82;;;;;;;29.52;39.05;99580.78;5086388;28;20109;-39
2023/07/05 09:55:26;;;;;;;11.80;7.32;;;;;;;29.12;39.04;99564.88;5079164;28;20044;-42
2023/07/05 09:57:53;;;;;;;14.90;6.78;;;;;;;29.06;39.77;99577.97;5072972;28;20158;-42
2023/07/05 10:00:40;;;;;;;12.05;7.53;;;;;;;28.78;40.90;99582.09;5077920;28;20048;-43
2023/07/05 10:03:14;;;;;;;14.10;7.40;;;;;;;28.49;41.56;99574.59;5068409;28;20044;-43
2023/07/05 10:05:50;;;;;;;15.50;7.18;;;;;;;28.39;42.12;99581.13;5079339;28;20043;-44
2023/07/05 10:08:17;;;;;;;11.43;7.25;;;;;;;28.38;42.16;99579.44;5088359;28;20035;-43
2023/07/05 10:10:43;;;;;;;15.45;7.55;;;;;;;27.86;42.40;99549.50;5084822;28;20044;-44
2023/07/05 10:13:21;;;;;;;14.70;7.65;;;;;;;27.82;42.50;99578.41;5074142;28;20503;-45
2023/07/05 10:15:52;;;;;;;12.23;7.40;;;;;;;27.83;42.84;99580.09;5088729;28;20415;-44
2023/07/05 10:18:25;;;;;;;15.35;7.85;;;;;;;28.32;42.29;99586.28;5071841;28;20068;-44
2023/07/05 10:20:51;;;;;;;13.70;7.18;;;;;;;28.43;41.75;99587.78;5089721;28;20098;-43
2023/07/05 10:23:21;;;;;;;11.90;7.35;;;;;;;28.29;41.99;99573.28;5071400;28;20155;-45
2023/07/05 10:25:48;;;;;;;16.15;7.90;;;;;;;27.87;42.41;99588.59;5087070;28;20448;-43
2023/07/05 10:28:20;;;;;;;14.55;7.43;;;;;;;27.30;43.18;99589.28;5087383;28;20094;-44
2023/07/05 10:30:59;;;;;;;13.45;7.50;;;;;;;26.89;44.01;99603.44;5063444;28;20036;-44
2023/07/05 10:33:37;;;;;;;11.68;7.32;;;;;;;26.44;45.03;99596.44;5067814;28;20043;-44
2023/07/05 10:36:03;;;;;;;12.02;7.15;;;;;;;26.17;45.42;99604.53;5084925;28;20147;-43
2023/07/05 10:38:49;;;;;;;12.65;7.20;;;;;;;25.89;46.38;99614.44;5089397;28;20476;-42
2023/07/05 10:41:21;;;;;;;17.08;7.47;;;;;;;25.82;46.49;99610.72;5089151;28;20065;-44
2023/07/05 10:43:53;;;;;;;13.77;8.50;;;;;;;25.58;46.92;99608.66;5050509;28;20052;-42
2023/07/05 10:46:21;;;;;;;12.98;7.60;;;;;;;25.44;47.33;99605.59;5085499;28;20401;-41
2023/07/05 10:48:49;;;;;;;14.38;7.20;;;;;;;25.40;47.78;99605.06;5054277;28;20032;-43
2023/07/05 10:51:21;;;;;;;16.65;7.85;;;;;;;25.29;48.60;99611.44;5070760;28;20474;-43
2023/07/05 10:53:52;;;;;;;14.32;7.35;;;;;;;25.41;48.15;99606.75;5070437;28;20048;-43
2023/07/05 10:56:32;;;;;;;14.82;6.35;;;;;;;25.44;48.46;99610.91;5087719;28;20039;-42
2023/07/05 10:59:04;;;;;;;11.75;7.43;;;;;;;25.51;48.61;99601.34;5087145;28;20534;-43
2023/07/05 11:01:38;;;;;;;14.10;7.75;;;;;;;25.50;48.92;99613.84;5088930;28;20040;-43
2023/07/05 11:04:12;;;;;;;13.95;7.03;;;;;;;25.46;49.29;99614.28;5086143;28;20138;-44
2023/07/05 11:06:40;;;;;;;12.65;7.40;;;;;;;25.35;49.35;99612.66;5087147;28;20040;-45
2023/07/05 11:09:08;;;;;;;16.40;7.35;;;;;;;25.28;49.94;99614.22;5088820;28;20039;-45
2023/07/05 11:11:43;;;;;;;12.57;7.38;;;;;;;25.33;49.93;99609.31;5087071;28;20044;-43
2023/07/05 11:14:12;;;;;;;10.70;7.78;;;;;;;25.49;49.13;99603.34;5081301;28;20044;-44
2023/07/05 11:16:39;;;;;;;12.13;7.28;;;;;;;26.47;47.57;99606.81;5070411;28;20504;-43
2023/07/05 11:19:12;;;;;;;17.55;7.47;;;;;;;27.61;45.32;99615.44;5068532;28;20163;-45
2023/07/05 11:21:46;;;;;;;16.13;7.50;;;;;;;27.97;44.61;99621.34;5087136;28;20051;-43
2023/07/05 11:24:30;;;;;;;18.60;7.25;;;;;;;27.54;44.76;99619.75;5081210;28;20512;-42
2023/07/05 11:26:57;;;;;;;13.48;7.72;;;;;;;27.17;45.29;99620.91;5066876;28;20704;-42
2023/07/05 11:29:32;;;;;;;11.27;7.63;;;;;;;27.95;44.09;99610.81;5074187;28;20043;-43
2023/07/05 11:32:01;;;;;;;11.45;7.50;;;;;;;29.91;40.42;99620.13;5086421;28;20054;-47
2023/07/05 11:34:27;;;;;;;12.48;7.35;;;;;;;30.30;39.55;99613.59;5087565;28;20455;-44
2023/07/05 11:37:13;;;;;;;13.40;7.45;;;;;;;30.85;38.54;99612.44;5086672;28;20040;-45